createdAt,value
2023-06-10T00:00:51.550Z,1012.6
2023-06-10T00:01:51.557Z,1012.7
2023-06-10T00:02:51.761Z,1012.7
2023-06-10T00:03:51.980Z,1012.6
2023-06-10T00:04:51.883Z,1012.6
2023-06-10T00:05:51.608Z,1012.6
2023-06-10T00:06:51.638Z,1012.6
2023-06-10T00:07:51.652Z,1012.7
2023-06-10T00:08:51.647Z,1012.7
2023-06-10T00:09:51.654Z,1012.8
2023-06-10T00:10:51.688Z,1012.6
2023-06-10T00:11:51.688Z,1012.7
2023-06-10T00:12:51.699Z,1012.7
2023-06-10T00:13:51.718Z,1012.7
2023-06-10T00:14:51.728Z,1012.7
2023-06-10T00:15:51.828Z,1012.7
2023-06-10T00:16:51.796Z,1012.6
2023-06-10T00:17:51.838Z,1012.7
2023-06-10T00:18:51.816Z,1012.7
2023-06-10T00:19:51.838Z,1012.7
2023-06-10T00:20:51.801Z,1012.7
2023-06-10T00:21:51.822Z,1012.7
2023-06-10T00:22:51.828Z,1012.7
2023-06-10T00:23:51.938Z,1012.7
2023-06-10T00:24:51.877Z,1012.7
2023-06-10T00:25:51.881Z,1012.7
2023-06-10T00:26:51.942Z,1012.7
2023-06-10T00:27:51.900Z,1012.7
2023-06-10T00:28:51.902Z,1012.6
2023-06-10T00:29:51.917Z,1012.6
2023-06-10T00:30:51.936Z,1012.6
2023-06-10T00:31:52.007Z,1012.6
2023-06-10T00:32:52.054Z,1012.6
2023-06-10T00:33:51.984Z,1012.6
2023-06-10T00:34:51.968Z,1012.6
2023-06-10T00:35:51.977Z,1012.6
2023-06-10T00:36:51.987Z,1012.6
2023-06-10T00:37:52.011Z,1012.5
2023-06-10T00:38:52.015Z,1012.6
2023-06-10T00:39:52.048Z,1012.5
2023-06-10T00:40:52.045Z,1012.5
2023-06-10T00:41:52.060Z,1012.6
2023-06-10T00:42:52.065Z,1012.6
2023-06-10T01:00:52.575Z,1012.6
2023-06-10T01:01:52.311Z,1012.6
2023-06-10T01:02:52.448Z,1012.6
2023-06-10T01:03:52.347Z,1012.6
2023-06-10T01:04:52.351Z,1012.6
2023-06-10T01:05:52.373Z,1012.6
2023-06-10T01:06:52.360Z,1012.6
2023-06-10T01:07:52.384Z,1012.6
2023-06-10T01:08:52.395Z,1012.6
2023-06-10T01:09:52.403Z,1012.7
2023-06-10T01:10:52.450Z,1012.6
2023-06-10T01:11:52.406Z,1012.6
2023-06-10T01:12:52.413Z,1012.6
2023-06-10T01:13:52.443Z,1012.6
2023-06-10T01:14:52.453Z,1012.6
2023-06-10T01:15:52.453Z,1012.6
2023-06-10T01:16:52.556Z,1012.5
2023-06-10T01:17:52.604Z,1012.7
2023-06-10T01:18:52.494Z,1012.6
2023-06-10T01:19:52.523Z,1012.6
2023-06-10T01:20:52.513Z,1012.7
2023-06-10T01:21:52.529Z,1012.6
2023-06-10T01:22:52.538Z,1012.6
2023-06-10T01:23:52.675Z,1012.7
2023-06-10T01:24:52.575Z,1012.6
2023-06-10T01:25:52.591Z,1012.7
2023-06-10T01:26:52.590Z,1012.8
2023-06-10T01:27:52.602Z,1012.8
2023-06-10T01:28:52.611Z,1012.7
2023-06-10T01:29:52.627Z,1012.7
2023-06-10T01:30:52.799Z,1012.7
2023-06-10T01:31:52.769Z,1012.7
2023-06-10T01:32:53.043Z,1012.7
2023-06-10T01:33:52.751Z,1012.7
2023-06-10T01:34:52.695Z,1012.8
2023-06-10T01:35:52.744Z,1012.7
2023-06-10T01:36:52.711Z,1012.8
2023-06-10T01:37:52.725Z,1012.7
2023-06-10T01:38:52.743Z,1012.7
2023-06-10T01:39:52.747Z,1012.7
2023-06-10T01:40:52.743Z,1012.7
2023-06-10T01:41:52.745Z,1012.8
2023-06-10T01:42:52.753Z,1012.7
2023-06-10T01:43:52.753Z,1012.7
2023-06-10T01:44:52.766Z,1012.7
2023-06-10T01:45:52.791Z,1012.7
2023-06-10T01:46:52.840Z,1012.8
2023-06-10T01:47:52.961Z,1012.7
2023-06-10T01:48:52.826Z,1012.7
2023-06-10T01:49:52.843Z,1012.7
2023-06-10T01:50:52.840Z,1012.7
2023-06-10T01:51:52.870Z,1012.6
2023-06-10T01:52:52.879Z,1012.8
2023-06-10T01:53:52.891Z,1012.7
2023-06-10T01:54:52.889Z,1012.7
2023-06-10T01:55:52.885Z,1012.8
2023-06-10T01:56:52.917Z,1012.7
2023-06-10T01:57:52.917Z,1012.8
2023-06-10T01:58:52.926Z,1012.6
2023-06-10T01:59:52.938Z,1012.8
2023-06-10T02:00:53.004Z,1012.8
2023-06-10T02:01:52.955Z,1012.8
2023-06-10T02:02:53.134Z,1012.7
2023-06-10T02:03:53.034Z,1012.6
2023-06-10T02:04:53.000Z,1012.7
2023-06-10T02:05:52.993Z,1012.7
2023-06-10T02:06:52.998Z,1012.6
2023-06-10T02:07:53.025Z,1012.7
2023-06-10T02:08:53.050Z,1012.6
2023-06-10T02:09:53.085Z,1012.6
2023-06-10T02:10:53.067Z,1012.7
2023-06-10T02:11:53.066Z,1012.6
2023-06-10T02:12:53.082Z,1012.7
2023-06-10T02:13:53.112Z,1012.7
2023-06-10T02:14:53.111Z,1012.7
2023-06-10T02:15:53.113Z,1012.6
2023-06-10T02:16:53.309Z,1012.7
2023-06-10T02:17:53.239Z,1012.7
2023-06-10T02:18:53.161Z,1012.6
2023-06-10T02:19:53.194Z,1012.6
2023-06-10T02:20:53.217Z,1012.7
2023-06-10T02:21:53.197Z,1012.6
2023-06-10T02:22:53.234Z,1012.7
2023-06-10T02:23:53.345Z,1012.7
2023-06-10T02:24:53.231Z,1012.6
2023-06-10T02:25:53.243Z,1012.6
2023-06-10T02:26:53.261Z,1012.6
2023-06-10T02:27:53.265Z,1012.6
2023-06-10T02:28:53.300Z,1012.7
2023-06-10T02:29:53.295Z,1012.7
2023-06-10T02:30:53.311Z,1012.5
2023-06-10T02:31:53.365Z,1012.6
2023-06-10T02:32:53.397Z,1012.5
2023-06-10T02:33:53.355Z,1012.6
2023-06-10T02:34:53.359Z,1012.6
2023-06-10T02:35:53.375Z,1012.6
2023-06-10T02:36:53.381Z,1012.6
2023-06-10T02:37:53.394Z,1012.6
2023-06-10T02:38:53.402Z,1012.6
2023-06-10T02:39:53.408Z,1012.6
2023-06-10T02:40:53.429Z,1012.6
2023-06-10T02:41:53.549Z,1012.6
2023-06-10T02:42:53.463Z,1012.6
2023-06-10T02:43:53.492Z,1012.6
2023-06-10T02:44:53.492Z,1012.6
2023-06-10T02:45:53.579Z,1012.7
2023-06-10T02:46:53.503Z,1012.7
2023-06-10T02:47:53.598Z,1012.7
2023-06-10T02:48:53.538Z,1012.6
2023-06-10T02:49:53.552Z,1012.6
2023-06-10T02:50:53.586Z,1012.5
2023-06-10T02:51:53.581Z,1012.5
2023-06-10T02:52:53.615Z,1012.6
2023-06-10T02:53:53.624Z,1012.5
2023-06-10T02:54:53.659Z,1012.6
2023-06-10T02:55:53.661Z,1012.6
2023-06-10T02:56:53.673Z,1012.6
2023-06-10T02:57:53.664Z,1012.5
2023-06-10T02:58:53.670Z,1012.6
2023-06-10T02:59:53.691Z,1012.6
2023-06-10T03:00:53.707Z,1012.6
2023-06-10T03:01:54.010Z,1012.6
2023-06-10T03:02:53.890Z,1012.6
2023-06-10T03:03:53.927Z,1012.8
2023-06-10T03:04:53.759Z,1012.7
2023-06-10T03:05:53.766Z,1012.7
2023-06-10T03:06:53.790Z,1012.7
2023-06-10T03:07:53.874Z,1012.7
2023-06-10T03:08:53.806Z,1012.7
2023-06-10T03:09:53.827Z,1012.6
2023-06-10T03:10:53.837Z,1012.6
2023-06-10T03:11:53.838Z,1012.7
2023-06-10T03:12:53.855Z,1012.6
2023-06-10T03:13:53.867Z,1012.6
2023-06-10T03:14:53.880Z,1012.7
2023-06-10T03:15:53.963Z,1012.7
2023-06-10T03:16:53.892Z,1012.6
2023-06-10T03:17:53.990Z,1012.7
2023-06-10T03:18:54.012Z,1012.7
2023-06-10T03:19:53.954Z,1012.8
2023-06-10T03:20:53.964Z,1012.8
2023-06-10T03:21:53.984Z,1012.8
2023-06-10T03:22:54.000Z,1012.7
2023-06-10T03:23:54.114Z,1012.7
2023-06-10T03:24:54.051Z,1012.7
2023-06-10T03:25:54.067Z,1012.7
2023-06-10T03:26:54.058Z,1012.8
2023-06-10T03:27:54.082Z,1012.8
2023-06-10T03:28:54.089Z,1012.7
2023-06-10T03:29:54.101Z,1012.7
2023-06-10T03:30:54.133Z,1012.8
2023-06-10T03:31:54.318Z,1012.6
2023-06-10T03:32:54.236Z,1012.8
2023-06-10T03:33:54.158Z,1012.8
2023-06-10T03:34:54.175Z,1012.8
2023-06-10T03:35:54.185Z,1012.8
2023-06-10T03:36:54.199Z,1012.7
2023-06-10T03:37:54.208Z,1012.8
2023-06-10T03:38:54.225Z,1012.8
2023-06-10T03:39:54.222Z,1012.8
2023-06-10T03:40:54.238Z,1012.8
2023-06-10T03:41:54.273Z,1012.8
2023-06-10T03:42:54.245Z,1012.8
2023-06-10T03:43:54.262Z,1012.8
2023-06-10T03:44:54.258Z,1012.8
2023-06-10T03:45:54.354Z,1012.8
2023-06-10T03:46:54.324Z,1012.7
2023-06-10T03:47:54.440Z,1012.7
2023-06-10T03:48:54.318Z,1012.8
2023-06-10T03:49:54.319Z,1012.9
2023-06-10T03:50:54.353Z,1012.8
2023-06-10T03:51:54.359Z,1012.7
2023-06-10T03:52:54.520Z,1012.7
2023-06-10T03:53:54.369Z,1012.7
2023-06-10T03:54:54.358Z,1012.7
2023-06-10T03:55:54.363Z,1012.7
2023-06-10T03:56:54.369Z,1012.8
2023-06-10T03:57:54.389Z,1012.7
2023-06-10T03:58:54.386Z,1012.7
2023-06-10T03:59:54.428Z,1012.7
2023-06-10T04:00:54.414Z,1012.7
2023-06-10T04:01:54.583Z,1012.7
2023-06-10T04:02:54.561Z,1012.7
2023-06-10T04:03:54.416Z,1012.7
2023-06-10T04:04:54.429Z,1012.7
2023-06-10T04:05:54.501Z,1012.7
2023-06-10T04:06:54.456Z,1012.7
2023-06-10T04:07:54.461Z,1012.8
2023-06-10T04:08:54.467Z,1012.8
2023-06-10T04:09:54.472Z,1012.7
2023-06-10T04:10:54.489Z,1012.8
2023-06-10T04:11:54.495Z,1012.7
2023-06-10T04:12:54.515Z,1012.8
2023-06-10T04:13:54.517Z,1012.8
2023-06-10T04:14:54.522Z,1012.8
2023-06-10T04:15:54.526Z,1012.8
2023-06-10T04:16:54.601Z,1012.8
2023-06-10T04:17:54.664Z,1012.9
2023-06-10T04:18:54.531Z,1012.8
2023-06-10T04:19:54.536Z,1012.8
2023-06-10T04:20:54.547Z,1012.7
2023-06-10T04:21:54.549Z,1012.8
2023-06-10T04:22:54.558Z,1012.8
2023-06-10T04:23:54.651Z,1012.8
2023-06-10T04:24:54.567Z,1012.8
2023-06-10T04:25:54.571Z,1012.8
2023-06-10T04:26:54.575Z,1012.8
2023-06-10T04:27:54.590Z,1012.9
2023-06-10T04:28:54.592Z,1012.8
2023-06-10T04:29:54.594Z,1012.8
2023-06-10T04:30:54.664Z,1012.8
2023-06-10T04:31:54.716Z,1012.8
2023-06-10T04:32:54.683Z,1012.8
2023-06-10T04:33:54.655Z,1012.7
2023-06-10T04:34:54.624Z,1012.8
2023-06-10T04:35:54.642Z,1012.8
2023-06-10T04:36:54.828Z,1012.8
2023-06-10T04:37:54.675Z,1012.8
2023-06-10T04:38:54.669Z,1012.8
2023-06-10T04:39:54.656Z,1012.8
2023-06-10T04:40:54.663Z,1012.8
2023-06-10T04:41:54.659Z,1012.8
2023-06-10T04:42:54.696Z,1012.8
2023-06-10T04:43:54.689Z,1012.8
2023-06-10T04:44:54.681Z,1012.8
2023-06-10T04:45:54.684Z,1012.8
2023-06-10T04:46:54.857Z,1012.8
2023-06-10T04:47:54.810Z,1012.7
2023-06-10T04:48:54.712Z,1012.7
2023-06-10T04:49:54.733Z,1012.8
2023-06-10T04:50:54.732Z,1012.8
2023-06-10T04:51:54.747Z,1012.8
2023-06-10T04:52:54.739Z,1012.8
2023-06-10T04:53:54.796Z,1012.8
2023-06-10T04:54:54.749Z,1012.8
2023-06-10T04:55:54.759Z,1012.8
2023-06-10T04:56:54.754Z,1012.8
2023-06-10T04:57:54.768Z,1012.8
2023-06-10T04:58:54.798Z,1012.8
2023-06-10T04:59:54.783Z,1012.8
2023-06-10T05:00:54.788Z,1012.8
2023-06-10T05:01:54.951Z,1012.8
2023-06-10T05:02:55.030Z,1012.8
2023-06-10T05:03:54.874Z,1012.8
2023-06-10T05:04:54.812Z,1012.8
2023-06-10T05:05:54.823Z,1012.8
2023-06-10T05:06:54.834Z,1012.7
2023-06-10T05:07:54.834Z,1012.8
2023-06-10T05:08:54.835Z,1012.7
2023-06-10T05:09:54.871Z,1012.7
2023-06-10T05:10:54.856Z,1012.8
2023-06-10T05:11:55.021Z,1012.7
2023-06-10T05:12:54.858Z,1012.7
2023-06-10T05:13:54.901Z,1012.8
2023-06-10T05:14:54.866Z,1012.8
2023-06-10T05:15:54.925Z,1012.8
2023-06-10T05:16:54.877Z,1012.8
2023-06-10T05:17:55.047Z,1012.8
2023-06-10T05:18:54.895Z,1012.8
2023-06-10T05:19:54.911Z,1012.8
2023-06-10T05:20:54.911Z,1012.8
2023-06-10T05:21:54.918Z,1012.9
2023-06-10T05:22:54.958Z,1012.9
2023-06-10T05:23:55.084Z,1012.9
2023-06-10T05:24:54.958Z,1012.9
2023-06-10T05:25:54.953Z,1012.8
2023-06-10T05:26:54.963Z,1012.9
2023-06-10T05:27:54.983Z,1012.9
2023-06-10T05:28:54.985Z,1012.9
2023-06-10T05:29:54.982Z,1012.8
2023-06-10T05:30:54.995Z,1012.9
2023-06-10T05:31:55.071Z,1012.8
2023-06-10T05:32:55.161Z,1012.8
2023-06-10T05:33:55.024Z,1012.9
2023-06-10T05:34:55.019Z,1012.8
2023-06-10T05:35:55.018Z,1012.8
2023-06-10T05:36:55.032Z,1012.8
2023-06-10T05:37:55.058Z,1012.8
2023-06-10T05:38:55.043Z,1012.8
2023-06-10T05:39:55.054Z,1012.8
2023-06-10T05:40:55.061Z,1012.9
2023-06-10T05:41:55.063Z,1012.8
2023-06-10T05:42:55.063Z,1012.8
2023-06-10T05:43:55.073Z,1012.8
2023-06-10T05:44:55.078Z,1012.8
2023-06-10T05:45:55.137Z,1012.9
2023-06-10T05:46:55.088Z,1012.8
2023-06-10T05:47:55.176Z,1012.8
2023-06-10T05:48:55.104Z,1012.8
2023-06-10T05:49:55.108Z,1012.8
2023-06-10T05:50:55.127Z,1012.8
2023-06-10T05:51:55.139Z,1012.9
2023-06-10T05:52:55.141Z,1012.8
2023-06-10T05:53:55.158Z,1012.8
2023-06-10T05:54:55.158Z,1012.8
2023-06-10T05:55:55.156Z,1012.7
2023-06-10T05:56:55.169Z,1012.8
2023-06-10T05:57:55.164Z,1012.8
2023-06-10T05:58:55.179Z,1012.7
2023-06-10T05:59:55.184Z,1012.7
2023-06-10T06:00:55.252Z,1012.7
2023-06-10T06:01:55.203Z,1012.8
2023-06-10T06:02:55.331Z,1012.8
2023-06-10T06:03:55.349Z,1012.9
2023-06-10T06:04:55.321Z,1012.9
2023-06-10T06:05:55.241Z,1012.8
2023-06-10T06:06:55.229Z,1012.8
2023-06-10T06:07:55.233Z,1012.8
2023-06-10T06:08:55.228Z,1012.7
2023-06-10T06:09:55.257Z,1012.8
2023-06-10T06:10:55.263Z,1012.8
2023-06-10T06:11:55.257Z,1012.8
2023-06-10T06:12:55.262Z,1012.8
2023-06-10T06:13:55.288Z,1012.7
2023-06-10T06:14:55.277Z,1012.6
2023-06-10T06:15:55.441Z,1012.7
2023-06-10T06:16:55.277Z,1012.7
2023-06-10T06:17:55.368Z,1012.7
2023-06-10T06:18:55.287Z,1012.7
2023-06-10T06:19:55.313Z,1012.7
2023-06-10T06:20:55.317Z,1012.7
2023-06-10T06:21:55.330Z,1012.7
2023-06-10T06:22:55.341Z,1012.6
2023-06-10T06:23:55.505Z,1012.7
2023-06-10T06:24:55.576Z,1012.7
2023-06-10T06:25:55.359Z,1012.7
2023-06-10T06:26:55.384Z,1012.7
2023-06-10T06:27:55.361Z,1012.7
2023-06-10T06:28:55.376Z,1012.6
2023-06-10T06:29:55.796Z,1012.6
2023-06-10T06:30:55.380Z,1012.6
2023-06-10T06:31:55.617Z,1012.5
2023-06-10T06:32:55.477Z,1012.6
2023-06-10T06:33:55.404Z,1012.6
2023-06-10T06:34:55.677Z,1012.6
2023-06-10T06:35:55.430Z,1012.6
2023-06-10T06:36:55.430Z,1012.8
2023-06-10T06:37:55.444Z,1012.7
2023-06-10T06:38:55.441Z,1012.6
2023-06-10T06:39:55.451Z,1012.6
2023-06-10T06:40:55.458Z,1012.6
2023-06-10T06:41:55.481Z,1012.7
2023-06-10T06:42:55.538Z,1012.7
2023-06-10T06:43:55.513Z,1012.7
2023-06-10T06:44:55.515Z,1012.7
2023-06-10T06:45:55.511Z,1012.6
2023-06-10T06:46:55.526Z,1012.6
2023-06-10T06:47:55.741Z,1012.6
2023-06-10T06:48:55.766Z,1012.7
2023-06-10T06:49:55.566Z,1012.7
2023-06-10T06:50:55.543Z,1012.7
2023-06-10T06:51:55.557Z,1012.6
2023-06-10T06:52:55.559Z,1012.7
2023-06-10T06:53:55.566Z,1012.6
2023-06-10T06:54:55.577Z,1012.8
2023-06-10T06:55:55.588Z,1012.7
2023-06-10T06:56:55.604Z,1012.8
2023-06-10T06:57:55.602Z,1012.8
2023-06-10T06:58:58.420Z,1012.7
2023-06-10T06:59:55.625Z,1012.7
2023-06-10T07:00:55.718Z,1012.7
2023-06-10T07:01:55.631Z,1012.8
2023-06-10T07:02:55.829Z,1012.8
2023-06-10T07:03:55.642Z,1012.7
2023-06-10T07:04:55.717Z,1012.7
2023-06-10T07:05:55.680Z,1012.7
2023-06-10T07:06:55.658Z,1012.7
2023-06-10T07:07:55.692Z,1012.8
2023-06-10T07:08:55.680Z,1012.8
2023-06-10T07:09:55.681Z,1012.7
2023-06-10T07:10:55.684Z,1012.8
2023-06-10T07:11:55.717Z,1012.8
2023-06-10T07:12:55.693Z,1012.9
2023-06-10T07:13:55.716Z,1012.9
2023-06-10T07:14:55.705Z,1012.9
2023-06-10T07:15:55.729Z,1012.9
2023-06-10T07:16:55.953Z,1012.9
2023-06-10T07:17:55.801Z,1012.9
2023-06-10T07:18:55.741Z,1012.9
2023-06-10T07:19:55.747Z,1012.9
2023-06-10T07:20:55.760Z,1013.0
2023-06-10T07:21:55.764Z,1012.9
2023-06-10T07:22:55.789Z,1012.9
2023-06-10T07:23:55.874Z,1012.9
2023-06-10T07:24:55.791Z,1012.8
2023-06-10T07:25:55.801Z,1012.9
2023-06-10T07:26:55.816Z,1013.0
2023-06-10T07:27:55.833Z,1012.9
2023-06-10T07:28:55.830Z,1012.9
2023-06-10T07:29:55.855Z,1012.8
2023-06-10T07:30:55.989Z,1012.8
2023-06-10T07:31:55.863Z,1012.9
2023-06-10T07:32:55.922Z,1012.9
2023-06-10T07:33:55.869Z,1012.8
2023-06-10T07:34:55.876Z,1012.8
2023-06-10T07:35:55.880Z,1012.9
2023-06-10T07:36:55.896Z,1012.9
2023-06-10T07:37:55.896Z,1012.8
2023-06-10T07:38:55.910Z,1012.9
2023-06-10T07:39:55.923Z,1012.9
2023-06-10T07:40:55.923Z,1012.8
2023-06-10T07:41:55.946Z,1012.9
2023-06-10T07:42:55.944Z,1012.9
2023-06-10T07:43:55.953Z,1012.8
2023-06-10T07:44:55.953Z,1012.9
2023-06-10T07:45:55.965Z,1012.8
2023-06-10T07:46:56.237Z,1013.0
2023-06-10T07:47:56.251Z,1012.9
2023-06-10T07:48:56.013Z,1012.9
2023-06-10T07:49:56.001Z,1012.9
2023-06-10T07:50:56.010Z,1012.9
2023-06-10T07:51:56.013Z,1012.9
2023-06-10T07:52:56.031Z,1012.9
2023-06-10T07:53:56.027Z,1012.8
2023-06-10T07:54:56.023Z,1012.9
2023-06-10T07:55:56.034Z,1012.8
2023-06-10T07:56:56.039Z,1012.9
2023-06-10T07:57:56.087Z,1012.8
2023-06-10T07:58:56.067Z,1012.8
2023-06-10T07:59:56.070Z,1012.8
2023-06-10T08:00:56.075Z,1012.8
2023-06-10T08:01:56.084Z,1012.9
2023-06-10T08:02:56.257Z,1012.9
2023-06-10T08:03:56.378Z,1012.9
2023-06-10T08:04:56.172Z,1012.9
2023-06-10T08:05:56.121Z,1012.8
2023-06-10T08:06:56.140Z,1012.8
2023-06-10T08:07:56.125Z,1012.8
2023-06-10T08:08:56.132Z,1012.8
2023-06-10T08:09:56.142Z,1012.8
2023-06-10T08:10:56.161Z,1012.9
2023-06-10T08:11:56.153Z,1012.9
2023-06-10T08:12:56.154Z,1012.9
2023-06-10T08:13:56.230Z,1012.8
2023-06-10T08:14:56.161Z,1012.9
2023-06-10T08:15:56.189Z,1012.9
2023-06-10T08:16:56.428Z,1012.8
2023-06-10T08:17:56.284Z,1013.0
2023-06-10T08:18:56.212Z,1012.9
2023-06-10T08:19:56.210Z,1012.9
2023-06-10T08:20:56.236Z,1012.9
2023-06-10T08:21:56.231Z,1012.9
2023-06-10T08:22:56.245Z,1013.0
2023-06-10T08:23:56.291Z,1012.9
2023-06-10T08:24:56.237Z,1012.8
2023-06-10T08:25:56.245Z,1012.9
2023-06-10T08:26:56.258Z,1012.9
2023-06-10T08:27:56.266Z,1012.9
2023-06-10T08:28:56.276Z,1012.8
2023-06-10T08:29:56.300Z,1012.9
2023-06-10T08:30:57.943Z,1013.0
2023-06-10T08:31:56.370Z,1012.9
2023-06-10T08:32:56.408Z,1012.9
2023-06-10T08:33:56.347Z,1012.9
2023-06-10T08:34:56.331Z,1012.9
2023-06-10T08:35:56.335Z,1012.9
2023-06-10T08:36:56.405Z,1012.9
2023-06-10T08:37:56.359Z,1012.9
2023-06-10T08:38:56.349Z,1012.9
2023-06-10T08:39:56.359Z,1013.0
2023-06-10T08:40:56.366Z,1013.0
2023-06-10T08:41:56.375Z,1012.9
2023-06-10T08:42:56.375Z,1012.9
2023-06-10T08:43:56.397Z,1012.9
2023-06-10T08:44:56.414Z,1012.9
2023-06-10T08:45:56.420Z,1012.9
2023-06-10T08:46:56.412Z,1012.9
2023-06-10T08:47:56.548Z,1012.9
2023-06-10T08:48:56.590Z,1012.9
2023-06-10T08:49:56.440Z,1012.9
2023-06-10T08:50:56.534Z,1012.9
2023-06-10T08:51:56.460Z,1012.9
2023-06-10T08:52:56.614Z,1013.0
2023-06-10T08:53:56.460Z,1012.9
2023-06-10T08:54:56.469Z,1012.9
2023-06-10T08:55:56.480Z,1013.0
2023-06-10T08:56:56.552Z,1013.0
2023-06-10T08:57:56.493Z,1012.9
2023-06-10T08:58:56.516Z,1012.9
2023-06-10T08:59:56.537Z,1012.9
2023-06-10T09:00:56.540Z,1012.9
2023-06-10T09:01:56.617Z,1012.9
2023-06-10T09:02:56.683Z,1012.8
2023-06-10T09:03:56.609Z,1012.8
2023-06-10T09:04:56.545Z,1012.8
2023-06-10T09:05:56.576Z,1012.9
2023-06-10T09:06:56.559Z,1012.8
2023-06-10T09:07:56.572Z,1012.8
2023-06-10T09:08:56.586Z,1012.8
2023-06-10T09:09:56.615Z,1012.8
2023-06-10T09:10:56.590Z,1012.8
2023-06-10T09:11:56.619Z,1012.8
2023-06-10T09:12:56.660Z,1012.8
2023-06-10T09:13:56.625Z,1012.7
2023-06-10T09:14:56.634Z,1012.8
2023-06-10T09:15:56.698Z,1012.7
2023-06-10T09:16:56.638Z,1012.8
2023-06-10T09:17:56.872Z,1012.8
2023-06-10T09:18:56.706Z,1012.7
2023-06-10T09:19:56.690Z,1012.7
2023-06-10T09:20:56.668Z,1012.7
2023-06-10T09:21:56.666Z,1012.8
2023-06-10T09:22:56.682Z,1012.8
2023-06-10T09:23:56.766Z,1012.8
2023-06-10T09:24:56.698Z,1012.8
2023-06-10T09:25:56.703Z,1012.8
2023-06-10T09:26:56.696Z,1012.8
2023-06-10T09:27:56.701Z,1012.8
2023-06-10T09:28:56.714Z,1012.8
2023-06-10T09:29:56.878Z,1012.7
2023-06-10T09:30:56.741Z,1012.8
2023-06-10T09:31:56.822Z,1012.7
2023-06-10T09:32:56.864Z,1012.7
2023-06-10T09:33:56.746Z,1012.7
2023-06-10T09:34:56.913Z,1012.8
2023-06-10T09:35:56.850Z,1012.7
2023-06-10T09:36:56.826Z,1012.7
2023-06-10T09:37:56.801Z,1012.7
2023-06-10T09:56:57.288Z,1012.7
2023-06-10T09:57:57.083Z,1012.8
2023-06-10T09:58:57.172Z,1012.7
2023-06-10T09:59:57.015Z,1012.7
2023-06-10T10:00:57.151Z,1012.8
2023-06-10T10:01:57.063Z,1012.8
2023-06-10T10:02:57.224Z,1012.8
2023-06-10T10:03:57.048Z,1012.8
2023-06-10T10:04:57.177Z,1012.8
2023-06-10T10:05:57.228Z,1012.8
2023-06-10T10:06:57.066Z,1012.8
2023-06-10T10:07:57.071Z,1012.8
2023-06-10T10:08:57.173Z,1012.8
2023-06-10T10:09:57.119Z,1012.8
2023-06-10T10:10:57.092Z,1012.8
2023-06-10T10:11:57.309Z,1012.8
2023-06-10T10:12:57.204Z,1012.8
2023-06-10T10:13:57.184Z,1012.8
2023-06-10T10:14:57.153Z,1012.8
2023-06-10T10:15:57.130Z,1012.8
2023-06-10T10:16:57.322Z,1012.8
2023-06-10T10:17:57.290Z,1012.8
2023-06-10T10:18:57.202Z,1012.8
2023-06-10T10:19:57.176Z,1012.8
2023-06-10T10:20:57.170Z,1012.8
2023-06-10T10:21:57.183Z,1012.8
2023-06-10T10:22:57.195Z,1012.8
2023-06-10T10:23:57.264Z,1012.8
2023-06-10T10:24:57.271Z,1012.8
2023-06-10T10:25:57.292Z,1012.8
2023-06-10T10:26:57.265Z,1012.8
2023-06-10T10:27:57.354Z,1012.9
2023-06-10T10:28:57.319Z,1012.8
2023-06-10T10:29:57.457Z,1012.8
2023-06-10T10:30:57.297Z,1012.8
2023-06-10T10:31:57.324Z,1012.8
2023-06-10T10:32:57.628Z,1012.8
2023-06-10T10:33:57.462Z,1012.8
2023-06-10T10:34:57.314Z,1012.9
2023-06-10T10:35:57.305Z,1012.9
2023-06-10T10:36:57.318Z,1012.8
2023-06-10T10:37:57.324Z,1012.9
2023-06-10T10:38:57.338Z,1012.8
2023-06-10T10:39:57.341Z,1012.8
2023-06-10T10:40:57.371Z,1012.8
2023-06-10T10:41:57.444Z,1012.9
2023-06-10T10:42:57.368Z,1012.9
2023-06-10T10:43:57.528Z,1012.8
2023-06-10T10:44:57.404Z,1012.8
2023-06-10T10:45:57.393Z,1012.9
2023-06-10T10:46:57.547Z,1012.8
2023-06-10T10:47:57.517Z,1012.7
2023-06-10T10:48:57.413Z,1012.8
2023-06-10T10:49:57.546Z,1012.8
2023-06-10T10:50:57.432Z,1012.8
2023-06-10T10:51:57.440Z,1012.8
2023-06-10T10:52:57.650Z,1012.8
2023-06-10T10:53:57.516Z,1012.8
2023-06-10T10:54:57.461Z,1012.8
2023-06-10T10:55:57.503Z,1012.8
2023-06-10T10:56:57.533Z,1012.8
2023-06-10T10:57:57.537Z,1013.0
2023-06-10T10:58:57.495Z,1012.9
2023-06-10T10:59:57.686Z,1012.8
2023-06-10T11:00:57.746Z,1012.7
2023-06-10T11:01:57.615Z,1012.8
2023-06-10T11:03:03.081Z,1012.8
2023-06-10T11:03:57.858Z,1012.8
2023-06-10T11:04:57.683Z,1012.8
2023-06-10T11:05:57.542Z,1012.8
2023-06-10T11:06:57.540Z,1012.7
2023-06-10T11:07:57.547Z,1012.8
2023-06-10T11:09:03.716Z,1012.7
2023-06-10T11:09:57.587Z,1012.8
2023-06-10T11:10:57.983Z,1012.8
2023-06-10T11:11:57.570Z,1012.8
2023-06-10T11:12:57.604Z,1012.8
2023-06-10T11:13:57.588Z,1012.7
2023-06-10T11:14:57.632Z,1012.8
2023-06-10T11:15:57.605Z,1012.8
2023-06-10T11:16:57.816Z,1012.8
2023-06-10T11:17:57.714Z,1012.8
2023-06-10T11:18:57.630Z,1012.8
2023-06-10T11:19:57.640Z,1012.8
2023-06-10T11:20:57.768Z,1012.8
2023-06-10T11:21:57.980Z,1012.8
2023-06-10T11:22:57.661Z,1012.8
2023-06-10T11:23:57.865Z,1012.7
2023-06-10T11:24:57.678Z,1012.8
2023-06-10T11:25:57.703Z,1012.8
2023-06-10T11:26:57.713Z,1012.7
2023-06-10T11:27:57.786Z,1012.7
2023-06-10T11:28:57.728Z,1012.7
2023-06-10T11:29:57.818Z,1012.7
2023-06-10T11:30:57.800Z,1012.7
2023-06-10T11:31:57.760Z,1012.7
2023-06-10T11:33:01.962Z,1012.6
2023-06-10T11:33:57.769Z,1012.7
2023-06-10T11:34:57.754Z,1012.6
2023-06-10T11:35:57.779Z,1012.4
2023-06-10T11:36:57.764Z,1012.7
2023-06-10T11:37:57.779Z,1012.6
2023-06-10T11:38:57.788Z,1012.7
2023-06-10T11:39:57.797Z,1012.7
2023-06-10T11:40:57.795Z,1012.7
2023-06-10T11:41:57.820Z,1012.7
2023-06-10T11:42:57.812Z,1012.7
2023-06-10T11:43:57.833Z,1012.6
2023-06-10T11:44:57.837Z,1012.7
2023-06-10T11:45:57.939Z,1012.6
2023-06-10T11:46:57.863Z,1012.6
2023-06-10T11:47:58.077Z,1012.6
2023-06-10T11:48:57.867Z,1012.6
2023-06-10T11:49:57.915Z,1012.7
2023-06-10T11:50:57.873Z,1012.7
2023-06-10T11:51:57.896Z,1012.5
2023-06-10T11:52:57.896Z,1012.6
2023-06-10T11:53:57.920Z,1012.5
2023-06-10T11:54:57.902Z,1012.5
2023-06-10T11:55:57.920Z,1012.6
2023-06-10T11:56:57.933Z,1012.6
2023-06-10T11:57:57.935Z,1012.7
2023-06-10T11:58:57.936Z,1012.6
2023-06-10T11:59:57.963Z,1012.6
2023-06-10T12:00:57.960Z,1012.5
2023-06-10T12:01:57.974Z,1012.5
2023-06-10T12:02:58.117Z,1012.6
2023-06-10T12:03:57.986Z,1012.6
2023-06-10T12:04:58.075Z,1012.6
2023-06-10T12:05:58.057Z,1012.5
2023-06-10T12:06:58.013Z,1012.5
2023-06-10T12:07:58.021Z,1012.6
2023-06-10T12:09:18.663Z,1012.6
2023-06-10T12:09:58.037Z,1012.6
2023-06-10T12:10:58.060Z,1012.5
2023-06-10T12:11:58.069Z,1012.5
2023-06-10T12:12:58.070Z,1012.6
2023-06-10T12:13:58.097Z,1012.6
2023-06-10T12:14:58.943Z,1012.6
2023-06-10T12:15:58.155Z,1012.6
2023-06-10T12:16:58.115Z,1012.6
2023-06-10T12:17:58.317Z,1012.6
2023-06-10T12:18:58.146Z,1012.6
2023-06-10T12:19:58.142Z,1012.5
2023-06-10T12:20:58.155Z,1012.5
2023-06-10T12:21:58.222Z,1012.5
2023-06-10T12:22:58.194Z,1012.5
2023-06-10T12:23:58.261Z,1012.6
2023-06-10T12:24:58.208Z,1012.6
2023-06-10T12:25:58.246Z,1012.5
2023-06-10T12:26:58.233Z,1012.5
2023-06-10T12:27:58.243Z,1012.5
2023-06-10T12:28:58.240Z,1012.5
2023-06-10T12:29:58.236Z,1012.4
2023-06-10T12:30:58.251Z,1012.5
2023-06-10T12:31:58.350Z,1012.4
2023-06-10T12:32:58.540Z,1012.4
2023-06-10T12:33:58.270Z,1012.4
2023-06-10T12:34:58.273Z,1012.5
2023-06-10T12:35:58.374Z,1012.4
2023-06-10T12:36:58.302Z,1012.5
2023-06-10T12:37:58.389Z,1012.3
2023-06-10T12:38:58.307Z,1012.3
2023-06-10T12:39:58.326Z,1012.3
2023-06-10T12:40:58.437Z,1012.3
2023-06-10T12:41:58.346Z,1012.3
2023-06-10T12:42:58.352Z,1012.3
2023-06-10T12:43:58.351Z,1012.4
2023-06-10T12:44:58.350Z,1012.2
2023-06-10T12:45:58.456Z,1012.2
2023-06-10T12:46:58.416Z,1012.3
2023-06-10T12:47:58.511Z,1012.2
2023-06-10T12:48:58.422Z,1012.3
2023-06-10T12:49:58.411Z,1012.2
2023-06-10T12:50:58.433Z,1012.2
2023-06-10T12:51:58.431Z,1012.3
2023-06-10T12:52:58.438Z,1012.3
2023-06-10T12:53:58.462Z,1012.2
2023-06-10T12:54:58.505Z,1012.2
2023-06-10T12:55:58.466Z,1012.3
2023-06-10T12:56:58.492Z,1012.3
2023-06-10T12:57:58.475Z,1012.3
2023-06-10T12:58:58.490Z,1012.3
2023-06-10T12:59:58.489Z,1012.3
2023-06-10T13:00:58.575Z,1012.3
2023-06-10T13:01:58.510Z,1012.3
2023-06-10T13:02:58.558Z,1012.3
2023-06-10T13:03:58.543Z,1012.2